THY367 LTFM-UGTB
Flight info
| Callsign | THY367 |
|---|---|
| Flight time | N/A |
| Altitude | 37000 |
| Route | EKAWE1E/36 EKAWE UT643 GAKSU UT310 SIN UN644 ROLIN N644 LAGAS |
| Aircraft | A20N/M-SDE2E3FGHIRWXY/LB1 |
Departure
| Time | 2026-05-07 12:23 |
|---|---|
| Airport | İstanbul Airport (LTFM) |
Arrival
| Time | N/A |
|---|---|
| Airport | Tbilisi International Airport (UGTB) |
| Time | Latitude | Longitude | Altitude | Speed | Heading |
|---|---|---|---|---|---|
| 2026-05-07 11:56 | 41.26776 | 28.74824 | 333 ft | 0 kts | 180° |
| 2026-05-07 12:12 | 41.26782 | 28.74824 | 333 ft | 2 kts | 180° |
| 2026-05-07 12:12 | 41.26797 | 28.74824 | 333 ft | 2 kts | 180° |
| 2026-05-07 12:12 | 41.26812 | 28.74824 | 333 ft | 2 kts | 180° |
| 2026-05-07 12:12 | 41.26826 | 28.74824 | 333 ft | 2 kts | 180° |
| 2026-05-07 12:13 | 41.26841 | 28.74824 | 333 ft | 1 kts | 180° |
| 2026-05-07 12:13 | 41.26851 | 28.74824 | 333 ft | 2 kts | 169° |
| 2026-05-07 12:13 | 41.26865 | 28.74815 | 333 ft | 2 kts | 137° |
| 2026-05-07 12:13 | 41.26873 | 28.74799 | 333 ft | 2 kts | 108° |
| 2026-05-07 12:14 | 41.26875 | 28.74787 | 333 ft | 1 kts | 90° |
| 2026-05-07 12:14 | 41.26875 | 28.74798 | 333 ft | 4 kts | 91° |
| 2026-05-07 12:14 | 41.26875 | 28.74822 | 333 ft | 0 kts | 89° |
| 2026-05-07 12:18 | 41.26875 | 28.74827 | 333 ft | 1 kts | 89° |
| 2026-05-07 12:19 | 41.26875 | 28.74857 | 333 ft | 4 kts | 89° |
| 2026-05-07 12:19 | 41.26876 | 28.74918 | 333 ft | 8 kts | 89° |
| 2026-05-07 12:19 | 41.26877 | 28.75006 | 333 ft | 11 kts | 89° |
| 2026-05-07 12:19 | 41.26879 | 28.75122 | 333 ft | 13 kts | 89° |
| 2026-05-07 12:20 | 41.26882 | 28.75260 | 333 ft | 15 kts | 88° |
| 2026-05-07 12:20 | 41.26877 | 28.75363 | 333 ft | 5 kts | 111° |
| 2026-05-07 12:20 | 41.26839 | 28.75375 | 333 ft | 7 kts | 182° |
| 2026-05-07 12:20 | 41.26764 | 28.75373 | 333 ft | 14 kts | 178° |
| 2026-05-07 12:21 | 41.26643 | 28.75377 | 333 ft | 20 kts | 179° |
| 2026-05-07 12:21 | 41.26488 | 28.75381 | 333 ft | 19 kts | 179° |
| 2026-05-07 12:21 | 41.26408 | 28.75455 | 333 ft | 15 kts | 93° |
| 2026-05-07 12:21 | 41.26410 | 28.75603 | 333 ft | 15 kts | 86° |
| 2026-05-07 12:22 | 41.26487 | 28.75666 | 333 ft | 15 kts | 360° |
| 2026-05-07 12:22 | 41.26721 | 28.75663 | 333 ft | 67 kts | 359° |
| 2026-05-07 12:22 | 41.27426 | 28.75647 | 333 ft | 131 kts | 359° |
| 2026-05-07 12:22 | 41.28455 | 28.75624 | 575 ft | 157 kts | 1° |
| 2026-05-07 12:23 | 41.29528 | 28.75647 | 1160 ft | 157 kts | 11° |
| 2026-05-07 12:23 | 41.30496 | 28.76278 | 1756 ft | 159 kts | 38° |
| 2026-05-07 12:23 | 41.31376 | 28.77145 | 2288 ft | 165 kts | 32° |
| 2026-05-07 12:23 | 41.32384 | 28.78001 | 2708 ft | 181 kts | 30° |
| 2026-05-07 12:24 | 41.33511 | 28.78905 | 3114 ft | 199 kts | 28° |
| 2026-05-07 12:24 | 41.34769 | 28.79873 | 3560 ft | 217 kts | 27° |
| 2026-05-07 12:24 | 41.36156 | 28.80916 | 3971 ft | 241 kts | 27° |
| 2026-05-07 12:24 | 41.37688 | 28.81989 | 4503 ft | 258 kts | 18° |
| 2026-05-07 12:25 | 41.39458 | 28.82440 | 5142 ft | 267 kts | 357° |
| 2026-05-07 12:25 | 41.41311 | 28.82264 | 6051 ft | 269 kts | 352° |
| 2026-05-07 12:25 | 41.43155 | 28.82016 | 6947 ft | 270 kts | 352° |
| 2026-05-07 12:25 | 41.45034 | 28.81763 | 7561 ft | 271 kts | 353° |
| 2026-05-07 12:26 | 41.46933 | 28.81516 | 7984 ft | 274 kts | 353° |
| 2026-05-07 12:26 | 41.48840 | 28.81274 | 8763 ft | 278 kts | 353° |
| 2026-05-07 12:26 | 41.50736 | 28.81037 | 9703 ft | 278 kts | 353° |
| 2026-05-07 12:26 | 41.52659 | 28.80798 | 10499 ft | 283 kts | 354° |
| 2026-05-07 12:27 | 41.54676 | 28.80548 | 10973 ft | 299 kts | 354° |
| 2026-05-07 12:27 | 41.56799 | 28.80286 | 11363 ft | 317 kts | 354° |
| 2026-05-07 12:27 | 41.59087 | 28.80041 | 11710 ft | 336 kts | 359° |
| 2026-05-07 12:27 | 41.61424 | 28.80662 | 11999 ft | 357 kts | 24° |
| 2026-05-07 12:28 | 41.63441 | 28.82703 | 12285 ft | 378 kts | 49° |
| 2026-05-07 12:28 | 41.64699 | 28.85838 | 12601 ft | 396 kts | 73° |
| 2026-05-07 12:28 | 41.65065 | 28.89504 | 13192 ft | 404 kts | 85° |
| 2026-05-07 12:28 | 41.65166 | 28.93281 | 13901 ft | 407 kts | 86° |
| 2026-05-07 12:29 | 41.65271 | 28.97051 | 14498 ft | 411 kts | 85° |
| 2026-05-07 12:29 | 41.65427 | 29.00865 | 15086 ft | 415 kts | 84° |
| 2026-05-07 12:29 | 41.65625 | 29.04718 | 15662 ft | 419 kts | 83° |
| 2026-05-07 12:29 | 41.65851 | 29.08613 | 16234 ft | 423 kts | 83° |
| 2026-05-07 12:30 | 41.66096 | 29.12516 | 16796 ft | 427 kts | 82° |
| 2026-05-07 12:30 | 41.66353 | 29.16474 | 17344 ft | 431 kts | 82° |
| 2026-05-07 12:30 | 41.66619 | 29.20493 | 17868 ft | 435 kts | 82° |
| 2026-05-07 12:30 | 41.66886 | 29.24502 | 18398 ft | 438 kts | 82° |
| 2026-05-07 12:31 | 41.67157 | 29.28563 | 18906 ft | 442 kts | 81° |
| 2026-05-07 12:31 | 41.67430 | 29.32668 | 19382 ft | 446 kts | 81° |
| 2026-05-07 12:31 | 41.67704 | 29.36782 | 19849 ft | 450 kts | 81° |
| 2026-05-07 12:31 | 41.67981 | 29.40985 | 20305 ft | 453 kts | 81° |
| 2026-05-07 12:32 | 41.68257 | 29.45179 | 20786 ft | 456 kts | 81° |
| 2026-05-07 12:32 | 41.68532 | 29.49377 | 21222 ft | 460 kts | 81° |
| 2026-05-07 12:32 | 41.68812 | 29.53693 | 21620 ft | 464 kts | 81° |
| 2026-05-07 12:32 | 41.69089 | 29.57979 | 21973 ft | 469 kts | 81° |
| 2026-05-07 12:33 | 41.69657 | 29.66806 | 22436 ft | 483 kts | 81° |
| 2026-05-07 12:33 | 41.69942 | 29.71319 | 22800 ft | 486 kts | 81° |
| 2026-05-07 12:33 | 41.70224 | 29.75796 | 23149 ft | 488 kts | 81° |
| 2026-05-07 12:34 | 41.70508 | 29.80352 | 23466 ft | 492 kts | 81° |
| 2026-05-07 12:34 | 41.70791 | 29.84903 | 23855 ft | 493 kts | 81° |
| 2026-05-07 12:34 | 41.71068 | 29.89413 | 24361 ft | 491 kts | 81° |
| 2026-05-07 12:34 | 41.71347 | 29.93962 | 24854 ft | 489 kts | 81° |
| 2026-05-07 12:35 | 41.71621 | 29.98453 | 25321 ft | 488 kts | 81° |
| 2026-05-07 12:35 | 41.71891 | 30.02928 | 25789 ft | 487 kts | 81° |
| 2026-05-07 12:35 | 41.72162 | 30.07431 | 26266 ft | 485 kts | 81° |
| 2026-05-07 12:35 | 41.72431 | 30.11934 | 26728 ft | 483 kts | 80° |
| 2026-05-07 12:36 | 41.72696 | 30.16390 | 27146 ft | 483 kts | 80° |
| 2026-05-07 12:36 | 41.72961 | 30.20865 | 27580 ft | 481 kts | 80° |
| 2026-05-07 12:36 | 41.73219 | 30.25262 | 27971 ft | 481 kts | 80° |
| 2026-05-07 12:36 | 41.73480 | 30.29730 | 28377 ft | 481 kts | 80° |
| 2026-05-07 12:37 | 41.73738 | 30.34183 | 28800 ft | 480 kts | 80° |
| 2026-05-07 12:37 | 41.73992 | 30.38602 | 29210 ft | 479 kts | 80° |
| 2026-05-07 12:37 | 41.74244 | 30.42993 | 29627 ft | 478 kts | 80° |
| 2026-05-07 12:37 | 41.74495 | 30.47435 | 30038 ft | 477 kts | 80° |
| 2026-05-07 12:38 | 41.74741 | 30.51810 | 30441 ft | 476 kts | 80° |
| 2026-05-07 12:38 | 41.74990 | 30.56209 | 30844 ft | 475 kts | 79° |
| 2026-05-07 12:38 | 41.75352 | 30.60616 | 31253 ft | 471 kts | 76° |
| 2026-05-07 12:38 | 41.75886 | 30.64901 | 31633 ft | 468 kts | 72° |
| 2026-05-07 12:39 | 41.76592 | 30.69108 | 31996 ft | 465 kts | 70° |
| 2026-05-07 12:39 | 41.77383 | 30.73289 | 32340 ft | 464 kts | 70° |
| 2026-05-07 12:39 | 41.78186 | 30.77454 | 32685 ft | 463 kts | 70° |
| 2026-05-07 12:39 | 41.78989 | 30.81626 | 33015 ft | 462 kts | 70° |
| 2026-05-07 12:40 | 41.79776 | 30.85741 | 33358 ft | 461 kts | 70° |
| 2026-05-07 12:40 | 41.80567 | 30.89908 | 33684 ft | 460 kts | 70° |
| 2026-05-07 12:40 | 41.81352 | 30.94059 | 33979 ft | 459 kts | 70° |
| 2026-05-07 12:40 | 41.82126 | 30.98170 | 34276 ft | 458 kts | 70° |
| 2026-05-07 12:41 | 41.82905 | 31.02322 | 34550 ft | 457 kts | 70° |
| 2026-05-07 12:41 | 41.83670 | 31.06414 | 34773 ft | 457 kts | 70° |
| 2026-05-07 12:41 | 41.84463 | 31.10516 | 34978 ft | 456 kts | 69° |
| 2026-05-07 12:41 | 41.85330 | 31.14600 | 35158 ft | 455 kts | 68° |
| 2026-05-07 12:42 | 41.86209 | 31.18644 | 35341 ft | 455 kts | 68° |
| 2026-05-07 12:42 | 41.87089 | 31.22697 | 35506 ft | 455 kts | 68° |
| 2026-05-07 12:42 | 41.87965 | 31.26765 | 35647 ft | 456 kts | 68° |
| 2026-05-07 12:42 | 41.88845 | 31.30889 | 35716 ft | 459 kts | 69° |
| 2026-05-07 12:43 | 41.90597 | 31.39141 | 35824 ft | 464 kts | 69° |
| 2026-05-07 12:43 | 41.93114 | 31.51105 | 36122 ft | 465 kts | 69° |
| 2026-05-07 12:44 | 41.94850 | 31.59396 | 36396 ft | 464 kts | 69° |
| 2026-05-07 12:44 | 41.98121 | 31.75065 | 36921 ft | 463 kts | 70° |
| 2026-05-07 12:44 | 42.01558 | 31.91691 | 37092 ft | 464 kts | 70° |
| 2026-05-07 12:44 | 42.04949 | 32.08153 | 37095 ft | 462 kts | 70° |
| 2026-05-07 12:45 | 42.12858 | 32.44761 | 37106 ft | 461 kts | 68° |
| 2026-05-07 12:45 | 42.17046 | 32.77910 | 37123 ft | 468 kts | 85° |